Terminal Aerodrome Forecast
Issued by NWS Sterling, VA

Home | Current Version | Previous Version | Text Only | Print | Product List | Glossary On
Versions: 1 2 3 4 5 6 7 8 9 10 11 12 13 14 15 16 17 18 19 20 21 22 23 24
954
FTUS41 KLWX 062054 AAA
TAFBWI
TAF AMD
KBWI 062054Z 0621/0724 03005KT P6SM -SHRA OVC010
     FM070200 33004KT 5SM -SHRA BR OVC008
     FM070300 31004KT 3SM BR OVC008
     FM070900 01004KT 3SM BR OVC008
     FM071300 34005KT P6SM OVC015
     FM071400 34005KT P6SM OVC025
     FM072000 25005KT P6SM BKN045
     FM072300 17005KT P6SM BKN150=

USA.gov is the U.S. government's official web portal to all federal, state and local government web resources and services.